Time;durP1;ratioP1;P1;durP2;ratioP2;P2;SDS_P1;SDS_P2;PMS_P1;PMS_P2;Temp;Humidity;BMP_temperature;BMP_pressure;BME280_temperature;BME280_humidity;BME280_pressure;Samples;Min_cycle;Max_cycle;Signal;HPM_P1;HPM_P2
2024/01/15 00:02:45;;;;;;;26.35;13.52;;;;;;;-1.83;97.01;99525.44;5051211;28;20503;-68
2024/01/15 00:05:49;;;;;;;28.05;13.05;;;;;;;-1.76;95.64;99532.13;5051503;28;20047;-67
2024/01/15 00:08:52;;;;;;;20.60;12.52;;;;;;;-1.71;94.60;99513.25;5052446;28;20126;-67
2024/01/15 00:11:55;;;;;;;24.25;13.15;;;;;;;-1.65;93.72;99500.31;5052507;28;20098;-67
2024/01/15 00:15:00;;;;;;;;;;;;;;;-1.65;94.09;99500.31;5051137;28;20090;-67
2024/01/15 00:18:04;;;;;;;20.65;12.30;;;;;;;-1.46;92.38;99489.72;5052852;28;19924;-67
2024/01/15 00:21:08;;;;;;;25.63;12.60;;;;;;;-1.39;89.58;99498.13;5053788;28;20102;-67
2024/01/15 00:24:12;;;;;;;22.02;11.82;;;;;;;-1.37;89.28;99494.66;5053088;28;20056;-67
2024/01/15 00:27:15;;;;;;;23.63;12.30;;;;;;;-1.43;88.64;99498.19;5053451;28;20047;-67
2024/01/15 00:30:18;;;;;;;24.58;12.48;;;;;;;-1.39;88.28;99486.16;5053164;28;20117;-67
2024/01/15 00:33:22;;;;;;;20.55;11.07;;;;;;;-1.35;88.09;99498.03;5052982;28;20457;-68
2024/01/15 00:36:27;;;;;;;21.30;12.35;;;;;;;-1.35;86.13;99497.19;5053244;28;20051;-67
2024/01/15 00:39:31;;;;;;;22.85;11.90;;;;;;;-1.24;86.76;99487.56;5053583;28;20051;-68
2024/01/15 00:43:02;;;;;;;25.85;13.43;;;;;;;-1.45;86.32;99486.28;5053045;28;20107;-68
2024/01/15 00:46:06;;;;;;;22.73;11.90;;;;;;;-1.31;87.31;99474.03;5052151;28;20052;-68
2024/01/15 00:49:11;;;;;;;21.67;13.18;;;;;;;-1.35;85.98;99472.38;5053011;28;20056;-68
2024/01/15 00:52:18;;;;;;;25.05;12.98;;;;;;;-1.23;86.31;99477.25;5053110;28;20117;-69
2024/01/15 00:55:25;;;;;;;22.20;12.75;;;;;;;-1.37;85.55;99469.03;5052770;28;20114;-68
2024/01/15 00:58:29;;;;;;;27.33;13.75;;;;;;;-1.31;85.64;99453.50;5053000;28;20051;-68
2024/01/15 01:01:37;;;;;;;23.13;12.43;;;;;;;-1.25;86.16;99462.78;5052029;28;20094;-67
2024/01/15 01:04:41;;;;;;;24.35;12.77;;;;;;;-1.27;85.18;99455.13;5052956;28;20048;-67
2024/01/15 01:07:44;;;;;;;24.17;13.23;;;;;;;-1.19;86.16;99437.84;5053202;28;20071;-67
2024/01/15 01:10:47;;;;;;;22.83;12.02;;;;;;;-1.15;85.79;99448.03;5052693;28;20064;-67
2024/01/15 01:13:51;;;;;;;24.10;12.85;;;;;;;-1.24;85.96;99449.94;5053000;28;20565;-67
2024/01/15 01:16:54;;;;;;;22.23;12.95;;;;;;;-1.22;85.98;99437.06;5052723;28;20104;-67
2024/01/15 01:19:57;;;;;;;24.38;14.23;;;;;;;-1.33;86.26;99436.47;5052692;28;20101;-67
2024/01/15 01:23:00;;;;;;;25.98;12.27;;;;;;;-1.25;86.30;99425.16;5052662;28;20087;-67
2024/01/15 01:26:04;;;;;;;22.58;12.80;;;;;;;-1.21;86.19;99428.50;5052694;28;20107;-67
2024/01/15 01:29:07;;;;;;;23.20;13.45;;;;;;;-1.18;86.62;99436.97;5052632;28;20534;-67
2024/01/15 01:32:10;;;;;;;23.88;13.15;;;;;;;-1.30;86.91;99434.69;5052605;28;20043;-67
2024/01/15 01:35:14;;;;;;;;;;;;;;;-1.25;86.85;99427.72;5053081;28;20098;-67
2024/01/15 01:38:17;;;;;;;21.90;11.85;;;;;;;-1.15;86.32;99443.75;5052377;28;20285;-67
2024/01/15 01:41:20;;;;;;;20.65;11.20;;;;;;;-1.16;86.33;99457.44;5052111;28;20047;-67
2024/01/15 01:44:23;;;;;;;25.77;14.00;;;;;;;-1.21;86.88;99441.34;5052073;28;20099;-67
2024/01/15 01:47:27;;;;;;;24.20;14.07;;;;;;;-1.22;88.03;99439.63;5052580;28;20051;-68
2024/01/15 01:50:31;;;;;;;26.10;12.02;;;;;;;-1.33;87.70;99437.31;5051654;28;20055;-67
2024/01/15 01:53:37;;;;;;;24.45;12.98;;;;;;;-1.34;88.00;99450.16;5052876;28;20087;-67
2024/01/15 01:56:42;;;;;;;26.85;13.02;;;;;;;-1.22;88.82;99437.06;5056186;28;20137;-67
2024/01/15 01:59:46;;;;;;;30.80;14.10;;;;;;;-1.24;89.78;99433.72;5055740;28;20098;-67
2024/01/15 02:02:50;;;;;;;26.08;13.05;;;;;;;-1.29;88.74;99438.09;5055273;28;20052;-67
2024/01/15 02:05:53;;;;;;;22.58;12.63;;;;;;;-1.34;89.15;99438.19;5055186;28;20094;-67
2024/01/15 02:08:57;;;;;;;25.20;13.48;;;;;;;-1.32;89.13;99436.41;5055308;28;20052;-67
2024/01/15 02:12:00;;;;;;;25.67;14.02;;;;;;;-1.26;89.55;99438.84;5055071;28;20109;-67
2024/01/15 02:15:04;;;;;;;24.92;13.60;;;;;;;-1.34;89.57;99437.31;5054999;28;20093;-67
2024/01/15 02:18:09;;;;;;;23.50;12.60;;;;;;;-1.29;89.72;99436.34;5055376;28;20044;-67
2024/01/15 02:21:12;;;;;;;24.40;13.70;;;;;;;-1.34;89.46;99437.31;5055846;28;20128;-67
2024/01/15 02:24:15;;;;;;;25.75;13.13;;;;;;;-1.37;89.76;99440.81;5055083;28;20098;-67
2024/01/15 02:27:20;;;;;;;22.20;12.55;;;;;;;-1.35;88.84;99420.25;5054671;28;20087;-67
2024/01/15 02:30:25;;;;;;;20.75;12.85;;;;;;;-1.26;88.11;99420.91;5055840;28;20521;-67
2024/01/15 02:33:28;;;;;;;22.15;11.90;;;;;;;-1.35;88.66;99433.91;5054837;28;20044;-67
2024/01/15 02:36:31;;;;;;;24.15;12.88;;;;;;;-1.41;89.64;99434.88;5055355;28;20508;-67
2024/01/15 02:39:35;;;;;;;;;;;;;;;-1.41;88.66;99437.44;5055658;28;20043;-67
2024/01/15 02:42:38;;;;;;;27.15;13.68;;;;;;;-1.45;89.53;99442.69;5055003;28;20018;-66
2024/01/15 02:45:41;;;;;;;24.05;12.85;;;;;;;-1.44;88.49;99457.19;5055743;28;20091;-67
2024/01/15 02:48:44;;;;;;;23.35;13.32;;;;;;;-1.26;88.87;99440.56;5054579;28;20052;-67
2024/01/15 02:51:47;;;;;;;;;;;;;;;-1.12;87.79;99442.84;5055695;28;20509;-67
2024/01/15 02:54:51;;;;;;;20.85;10.40;;;;;;;-1.24;87.56;99439.69;5055200;28;19919;-67
2024/01/15 02:57:54;;;;;;;23.10;12.45;;;;;;;-1.33;88.11;99437.31;5054381;28;20403;-67
2024/01/15 03:00:57;;;;;;;22.73;12.23;;;;;;;-1.37;87.03;99443.38;5054851;28;20124;-67
2024/01/15 03:04:01;;;;;;;23.45;13.05;;;;;;;-1.24;86.95;99444.81;5054962;28;20098;-67
2024/01/15 03:07:04;;;;;;;24.48;13.40;;;;;;;-1.12;87.34;99447.97;5054349;28;20182;-67
2024/01/15 03:10:08;;;;;;;25.40;11.35;;;;;;;-1.11;86.88;99447.09;5053705;28;20133;-67
2024/01/15 03:13:10;;;;;;;22.67;12.65;;;;;;;-1.22;85.94;99445.59;5054404;28;20083;-67
2024/01/15 03:16:13;;;;;;;24.92;13.07;;;;;;;-1.22;87.66;99431.94;5054052;28;20406;-67
2024/01/15 03:19:17;;;;;;;31.67;12.88;;;;;;;-1.32;88.88;99431.28;5054973;28;20140;-66
2024/01/15 03:22:20;;;;;;;23.05;12.25;;;;;;;-1.37;88.78;99443.38;5041862;28;20175;-67
2024/01/15 03:25:23;;;;;;;24.67;12.00;;;;;;;-1.22;88.34;99443.03;5054634;28;20052;-67
2024/01/15 03:28:27;;;;;;;24.00;13.88;;;;;;;-1.18;86.96;99439.53;5055024;28;20056;-67
2024/01/15 03:31:30;;;;;;;22.77;12.05;;;;;;;-1.21;87.49;99431.06;5054499;28;20043;-67
2024/01/15 03:34:33;;;;;;;27.13;13.43;;;;;;;-1.11;87.43;99440.25;5054656;28;20098;-67
2024/01/15 03:37:37;;;;;;;23.67;12.65;;;;;;;-1.18;88.19;99439.53;5054588;28;20098;-67
2024/01/15 03:40:40;;;;;;;21.60;12.73;;;;;;;-1.07;88.36;99434.16;5054449;28;20060;-67
2024/01/15 03:43:43;;;;;;;22.20;12.65;;;;;;;-1.06;86.95;99432.44;5054414;28;20091;-67
2024/01/15 03:46:47;;;;;;;22.17;12.93;;;;;;;-1.11;87.64;99439.41;5054439;28;20075;-67
2024/01/15 03:49:50;;;;;;;;;;;;;;;-0.99;87.65;99426.28;5054760;28;20048;-67
2024/01/15 03:52:53;;;;;;;28.08;12.57;;;;;;;-1.02;86.77;99436.63;5054145;28;19958;-67
2024/01/15 03:55:56;;;;;;;21.35;12.45;;;;;;;-1.02;87.23;99439.19;5053352;28;20043;-67
2024/01/15 03:59:00;;;;;;;23.33;13.32;;;;;;;-0.97;86.99;99430.50;5053927;28;20070;-67
2024/01/15 04:02:04;;;;;;;23.15;12.32;;;;;;;-1.09;87.71;99420.53;5054103;28;20040;-67
2024/01/15 04:05:07;;;;;;;25.00;12.38;;;;;;;-1.20;88.78;99423.34;5053927;28;20130;-67
2024/01/15 04:08:10;;;;;;;23.95;13.10;;;;;;;-1.12;89.25;99412.06;5054205;28;20060;-67
2024/01/15 04:11:14;;;;;;;28.50;13.43;;;;;;;-1.04;88.49;99415.31;5053965;28;20520;-67
2024/01/15 04:14:17;;;;;;;29.10;14.05;;;;;;;-1.13;88.60;99407.81;5053394;28;20068;-67
2024/01/15 04:17:21;;;;;;;24.63;14.32;;;;;;;-1.09;88.79;99414.53;5052281;28;20060;-67
2024/01/15 04:20:24;;;;;;;25.38;13.45;;;;;;;-1.05;89.05;99411.91;5053879;28;20090;-67
2024/01/15 04:23:27;;;;;;;27.70;15.20;;;;;;;-0.97;88.30;99411.72;5053604;28;20114;-67
2024/01/15 04:26:31;;;;;;;25.13;13.93;;;;;;;-1.08;87.77;99403.44;5053682;28;20128;-67
2024/01/15 04:29:34;;;;;;;25.90;13.48;;;;;;;-0.99;88.12;99413.47;5053470;28;20098;-67
2024/01/15 04:32:37;;;;;;;26.80;14.27;;;;;;;-0.88;87.85;99395.25;5053176;28;20083;-67
2024/01/15 04:35:41;;;;;;;;;;;;;;;-0.96;87.75;99392.84;5053173;28;20663;-67
2024/01/15 04:38:44;;;;;;;24.05;14.25;;;;;;;-0.86;87.29;99388.34;5052527;28;19924;-67
2024/01/15 04:41:47;;;;;;;26.67;14.00;;;;;;;-0.99;87.50;99395.50;5052815;28;20083;-67
2024/01/15 04:44:51;;;;;;;26.20;13.68;;;;;;;-0.91;87.52;99385.06;5052567;28;20077;-68
2024/01/15 04:47:57;;;;;;;26.13;15.18;;;;;;;-0.82;87.34;99397.69;5051450;28;20407;-68
2024/01/15 04:51:00;;;;;;;22.88;13.07;;;;;;;-0.79;87.63;99388.19;5052227;28;20110;-67
2024/01/15 04:54:04;;;;;;;28.85;15.27;;;;;;;-1.08;89.46;99382.91;5049911;28;20036;-66
2024/01/15 04:57:07;;;;;;;23.88;13.25;;;;;;;-1.09;90.34;99382.03;5050345;28;20518;-67
2024/01/15 05:00:12;;;;;;;23.92;13.10;;;;;;;-1.09;91.43;99371.78;5050582;28;20120;-67
2024/01/15 05:03:15;;;;;;;26.52;14.52;;;;;;;-0.97;91.79;99386.06;5051336;28;20047;-67
2024/01/15 05:06:19;;;;;;;24.33;14.48;;;;;;;-1.08;91.25;99395.75;5051816;28;20123;-67
2024/01/15 05:09:22;;;;;;;24.55;13.05;;;;;;;-1.05;90.89;99386.25;5052472;28;20125;-67
2024/01/15 05:12:25;;;;;;;26.42;14.27;;;;;;;-0.98;91.07;99376.69;5052513;28;20064;-67
2024/01/15 05:15:29;;;;;;;27.65;12.98;;;;;;;-0.83;90.21;99384.00;5052406;28;20174;-67
2024/01/15 05:18:32;;;;;;;29.75;14.85;;;;;;;-0.79;90.21;99380.47;5047933;28;20479;-66
2024/01/15 05:21:36;;;;;;;28.13;14.82;;;;;;;-0.94;90.52;99385.97;5052628;28;20055;-65
2024/01/15 05:24:39;;;;;;;25.65;13.23;;;;;;;-0.98;91.90;99379.25;5052276;28;20048;-66
2024/01/15 05:27:43;;;;;;;;;;;;;;;-0.92;91.13;99378.25;5048537;28;20091;-66
2024/01/15 05:30:47;;;;;;;28.20;14.82;;;;;;;-0.88;90.45;99374.72;5051966;28;19979;-66
2024/01/15 05:33:50;;;;;;;25.27;13.98;;;;;;;-0.78;89.72;99363.34;5052624;28;20047;-76
2024/01/15 05:36:53;;;;;;;28.58;16.02;;;;;;;-0.66;89.61;99372.50;5051530;28;20044;-65
2024/01/15 05:39:57;;;;;;;23.10;14.07;;;;;;;-0.77;90.23;99367.59;5052385;28;20055;-66
2024/01/15 05:43:26;;;;;;;31.10;15.90;;;;;;;-0.87;91.31;99361.84;5051792;28;20442;-66
2024/01/15 05:46:29;;;;;;;28.38;15.23;;;;;;;-0.86;91.79;99368.69;5051210;28;20144;-65
2024/01/15 05:49:32;;;;;;;28.83;14.57;;;;;;;-0.83;91.70;99366.06;5052363;28;20425;-65
2024/01/15 05:52:36;;;;;;;27.92;16.40;;;;;;;-0.73;91.58;99371.81;5052103;28;20044;-66
2024/01/15 05:55:39;;;;;;;28.83;14.95;;;;;;;-0.74;91.09;99378.63;5052213;28;20525;-66
2024/01/15 05:58:42;;;;;;;31.58;17.60;;;;;;;-0.68;90.87;99382.78;5052135;28;20094;-66
2024/01/15 06:01:46;;;;;;;28.08;15.38;;;;;;;-0.65;90.35;99376.72;5052215;28;20079;-66
2024/01/15 06:04:49;;;;;;;30.83;16.50;;;;;;;-0.75;91.06;99376.13;5052187;28;20052;-66
2024/01/15 06:07:53;;;;;;;27.73;14.38;;;;;;;-0.63;89.92;99377.53;5052277;28;20524;-66
2024/01/15 06:10:57;;;;;;;32.20;15.75;;;;;;;-0.63;90.52;99369.84;5052207;28;20054;-66
2024/01/15 06:14:01;;;;;;;30.13;16.15;;;;;;;-0.68;90.76;99372.50;5052193;28;20457;-66
2024/01/15 06:17:05;;;;;;;31.48;16.80;;;;;;;-0.58;91.65;99361.13;5051415;28;20063;-66
2024/01/15 06:20:11;;;;;;;30.70;16.20;;;;;;;-0.58;91.84;99362.84;5052197;28;20099;-66
2024/01/15 06:23:14;;;;;;;28.50;14.10;;;;;;;-0.52;91.18;99363.53;5052052;28;20043;-65
2024/01/15 06:26:19;;;;;;;27.67;15.77;;;;;;;-0.50;89.95;99366.09;5052176;28;20071;-65
2024/01/15 06:29:25;;;;;;;30.38;17.27;;;;;;;-0.40;89.25;99358.97;5052084;28;20445;-65
2024/01/15 06:32:31;;;;;;;32.63;17.30;;;;;;;-0.46;88.71;99362.53;5051995;28;20630;-66
2024/01/15 06:35:35;;;;;;;29.92;16.00;;;;;;;-0.32;88.44;99360.47;5052215;28;20099;-67
2024/01/15 06:38:40;;;;;;;29.45;15.68;;;;;;;-0.30;88.36;99365.56;5052070;28;20092;-66
2024/01/15 06:41:44;;;;;;;28.52;17.13;;;;;;;-0.26;87.71;99365.41;5068243;28;20043;-67
2024/01/15 06:44:52;;;;;;;29.88;16.40;;;;;;;-0.18;88.40;99357.53;5061607;28;20192;-67
2024/01/15 06:47:56;;;;;;;31.00;16.25;;;;;;;-0.36;87.60;99358.00;5042682;28;20476;-65
2024/01/15 06:51:00;;;;;;;28.63;17.15;;;;;;;-0.43;87.61;99362.47;5053726;28;20128;-66
2024/01/15 06:54:12;;;;;;;40.60;18.42;;;;;;;-0.51;88.18;99359.22;5055360;28;20036;-69
2024/01/15 06:57:22;;;;;;;33.33;17.80;;;;;;;-0.51;90.20;99366.94;5055571;28;20099;-66
2024/01/15 07:00:27;;;;;;;32.00;17.40;;;;;;;-0.61;92.61;99357.78;5055576;28;20599;-66
2024/01/15 07:03:30;;;;;;;31.60;17.42;;;;;;;-0.86;96.10;99350.72;5055153;28;20071;-66
2024/01/15 07:06:33;;;;;;;30.70;17.65;;;;;;;-0.91;97.32;99367.94;5055179;28;20090;-67
2024/01/15 07:09:37;;;;;;;29.63;15.82;;;;;;;-0.85;96.05;99365.22;5055268;28;20137;-66
2024/01/15 07:12:43;;;;;;;;;;;;;;;-0.71;95.27;99363.16;5055509;28;20470;-66
2024/01/15 07:15:47;;;;;;;31.38;16.85;;;;;;;-0.55;95.04;99357.63;5054818;28;20423;-67
2024/01/15 07:18:50;;;;;;;30.95;15.85;;;;;;;-0.49;95.54;99354.91;5055060;28;20058;-66
2024/01/15 07:21:53;;;;;;;31.85;17.58;;;;;;;-0.39;95.33;99356.34;5055029;28;20461;-66
2024/01/15 07:24:59;;;;;;;31.23;17.27;;;;;;;-0.39;95.65;99355.53;5054895;28;20579;-66
2024/01/15 07:28:04;;;;;;;29.30;15.52;;;;;;;-0.27;95.37;99358.59;5054782;28;20418;-66
2024/01/15 07:31:08;;;;;;;29.63;16.80;;;;;;;-0.12;95.10;99346.25;5055058;28;20090;-66
2024/01/15 07:34:11;;;;;;;31.63;18.02;;;;;;;-0.05;94.80;99342.59;5054687;28;20512;-66
2024/01/15 07:37:15;;;;;;;29.38;16.27;;;;;;;-0.03;94.40;99336.56;5054922;28;20076;-67
2024/01/15 07:40:18;;;;;;;;;;;;;;;-0.04;94.00;99344.28;5054934;28;20039;-66
2024/01/15 07:43:22;;;;;;;30.27;16.42;;;;;;;0.04;93.98;99356.94;5054410;28;20439;-66
2024/01/15 07:46:25;;;;;;;31.00;15.93;;;;;;;0.11;93.88;99354.13;5054341;28;20051;-66
2024/01/15 07:49:29;;;;;;;29.77;18.25;;;;;;;0.00;94.11;99345.91;5053217;28;20059;-67
2024/01/15 07:52:32;;;;;;;;;;;;;;;0.02;93.07;99356.13;5052354;28;20136;-66
2024/01/15 07:55:35;;;;;;;27.67;15.57;;;;;;;0.05;91.92;99354.31;5053726;28;19920;-66
2024/01/15 07:58:39;;;;;;;29.85;15.95;;;;;;;0.05;92.39;99354.31;5053465;28;20597;-66
2024/01/15 08:01:42;;;;;;;27.00;15.80;;;;;;;0.16;92.33;99343.72;5052870;28;20095;-71
2024/01/15 08:04:45;;;;;;;27.45;14.90;;;;;;;0.18;91.85;99342.78;5052512;28;20044;-67
2024/01/15 08:07:49;;;;;;;27.33;15.32;;;;;;;0.16;90.42;99344.59;5051999;28;20047;-67
2024/01/15 08:10:53;;;;;;;24.65;15.07;;;;;;;0.27;90.65;99343.41;5052185;28;20425;-67
2024/01/15 08:13:56;;;;;;;25.38;14.35;;;;;;;0.21;89.68;99335.00;5052696;28;20102;-67
2024/01/15 08:16:59;;;;;;;27.23;16.33;;;;;;;0.07;92.06;99337.13;5052121;28;20116;-67
2024/01/15 08:20:04;;;;;;;27.95;15.75;;;;;;;0.12;92.64;99348.09;5052385;28;20058;-68
2024/01/15 08:23:07;;;;;;;29.25;16.30;;;;;;;0.13;91.15;99356.69;5051824;28;20151;-67
2024/01/15 08:26:11;;;;;;;29.20;16.17;;;;;;;0.15;90.29;99348.00;5052068;28;20098;-67
2024/01/15 08:29:14;;;;;;;29.70;17.05;;;;;;;0.26;89.12;99354.59;5052065;28;20067;-67
2024/01/15 08:32:17;;;;;;;29.52;17.42;;;;;;;0.18;89.28;99353.06;5052297;28;20105;-68
2024/01/15 08:35:22;;;;;;;26.20;16.40;;;;;;;0.17;88.70;99351.41;5051893;28;20047;-67
2024/01/15 08:38:26;;;;;;;27.63;15.52;;;;;;;0.29;87.18;99349.34;5052121;28;20056;-72
2024/01/15 08:41:33;;;;;;;25.33;14.38;;;;;;;0.36;86.64;99349.13;5051899;28;20048;-68
2024/01/15 08:44:39;;;;;;;27.17;15.48;;;;;;;0.47;85.35;99346.22;5051505;28;20102;-67
2024/01/15 08:47:42;;;;;;;29.65;17.88;;;;;;;0.59;85.79;99345.88;5051731;28;20063;-67
2024/01/15 08:50:45;;;;;;;26.17;15.80;;;;;;;0.45;85.84;99340.31;5052281;28;20129;-67
2024/01/15 08:53:50;;;;;;;23.88;14.90;;;;;;;0.52;86.20;99346.94;5051870;28;20179;-67
2024/01/15 08:56:53;;;;;;;26.77;15.90;;;;;;;0.71;84.73;99354.13;5051533;28;20035;-67
2024/01/15 08:59:57;;;;;;;29.15;16.60;;;;;;;0.86;84.56;99343.31;5051176;28;20052;-67
2024/01/15 09:03:00;;;;;;;28.35;16.90;;;;;;;0.88;83.22;99349.28;5051360;28;20086;-67
2024/01/15 09:06:04;;;;;;;29.13;17.77;;;;;;;0.90;83.44;99347.50;5051533;28;20118;-67
2024/01/15 09:09:07;;;;;;;28.23;16.02;;;;;;;1.16;81.53;99357.78;5051576;28;20434;-68
2024/01/15 09:12:10;;;;;;;26.10;15.68;;;;;;;1.12;82.07;99353.66;5051531;28;20059;-68
2024/01/15 09:15:13;;;;;;;28.88;17.77;;;;;;;1.34;82.07;99351.22;5051436;28;20102;-67
2024/01/15 09:18:17;;;;;;;23.98;14.98;;;;;;;1.20;81.16;99355.13;5051650;28;20059;-68
2024/01/15 09:21:20;;;;;;;23.70;14.80;;;;;;;1.22;81.25;99356.75;5051423;28;20047;-67
2024/01/15 09:24:23;;;;;;;24.75;16.10;;;;;;;1.08;81.28;99354.63;5051204;28;20040;-67
2024/01/15 09:27:27;;;;;;;20.63;13.07;;;;;;;0.95;79.67;99345.59;5050540;28;20480;-67
2024/01/15 09:30:30;;;;;;;22.48;13.57;;;;;;;1.11;80.04;99336.50;5051279;28;20071;-67
2024/01/15 09:33:34;;;;;;;21.75;13.60;;;;;;;1.03;79.96;99341.06;5051046;28;20406;-67
2024/01/15 09:36:42;;;;;;;21.95;13.23;;;;;;;1.01;79.72;99348.00;5051195;28;20094;-67
2024/01/15 09:39:45;;;;;;;23.80;14.23;;;;;;;1.16;79.83;99350.06;5050926;28;20087;-67
2024/01/15 09:42:49;;;;;;;20.45;11.90;;;;;;;1.20;79.53;99345.66;5051164;28;20577;-67
2024/01/15 09:45:54;;;;;;;20.40;12.68;;;;;;;1.35;79.47;99342.59;5051014;28;20048;-67
2024/01/15 09:48:57;;;;;;;22.27;13.32;;;;;;;1.46;79.29;99349.94;5050894;28;20052;-70
2024/01/15 09:52:01;;;;;;;18.50;12.25;;;;;;;1.49;78.36;99349.84;5051099;28;20071;-67
2024/01/15 09:55:05;;;;;;;16.38;11.30;;;;;;;1.42;78.88;99348.38;5051028;28;20044;-67
2024/01/15 09:58:09;;;;;;;17.88;11.15;;;;;;;1.26;78.48;99352.34;5051041;28;20056;-67
2024/01/15 10:01:15;;;;;;;16.88;11.13;;;;;;;1.29;77.83;99341.94;5051014;28;20043;-67
2024/01/15 10:04:18;;;;;;;15.10;9.98;;;;;;;1.44;76.79;99320.00;5051016;28;20060;-67
2024/01/15 10:07:23;;;;;;;16.88;10.38;;;;;;;1.44;76.66;99328.56;5050865;28;20466;-67
2024/01/15 10:10:26;;;;;;;14.10;8.98;;;;;;;1.54;76.06;99317.03;5050883;28;20048;-68
2024/01/15 10:13:30;;;;;;;;;;;;;;;1.47;76.30;99310.44;5051055;28;20462;-67
2024/01/15 10:16:33;;;;;;;15.60;9.95;;;;;;;1.60;77.48;99306.53;5054389;28;19989;-67
2024/01/15 10:19:36;;;;;;;16.33;10.52;;;;;;;1.78;76.28;99301.59;5054913;28;20059;-67
2024/01/15 10:22:43;;;;;;;14.98;10.75;;;;;;;1.56;76.75;99289.50;5055262;28;20126;-67
2024/01/15 10:25:46;;;;;;;15.05;10.15;;;;;;;1.63;76.62;99290.13;5054580;28;20457;-67
2024/01/15 10:28:51;;;;;;;;;;;;;;;1.50;76.82;99289.72;5054928;28;20563;-68
2024/01/15 10:31:54;;;;;;;15.32;9.30;;;;;;;1.14;77.67;99279.75;5054787;28;19996;-68
2024/01/15 10:34:58;;;;;;;13.07;9.60;;;;;;;1.35;77.72;99279.94;5054499;28;20506;-67
2024/01/15 10:38:02;;;;;;;15.70;9.00;;;;;;;1.06;77.83;99273.22;5054287;28;20040;-67
2024/01/15 10:41:05;;;;;;;13.50;10.05;;;;;;;1.11;78.66;99272.13;5054237;28;20107;-67
2024/01/15 10:44:08;;;;;;;;;;;;;;;1.04;78.63;99262.94;5054102;28;20056;-68
2024/01/15 10:47:11;;;;;;;13.65;9.00;;;;;;;1.14;78.78;99276.34;5054330;28;19934;-67
2024/01/15 10:50:15;;;;;;;;;;;;;;;0.86;80.37;99277.28;5054580;28;20123;-68
2024/01/15 10:53:20;;;;;;;16.55;9.77;;;;;;;0.90;80.60;99278.03;5054536;28;19947;-67
2024/01/15 10:56:25;;;;;;;13.00;9.68;;;;;;;0.61;82.02;99261.78;5052409;28;20052;-68
2024/01/15 10:59:28;;;;;;;19.17;11.38;;;;;;;0.74;82.28;99263.97;5074928;28;20099;-67
2024/01/15 11:02:36;;;;;;;17.40;11.55;;;;;;;0.81;82.91;99262.88;5053361;28;20182;-67
2024/01/15 11:05:44;;;;;;;16.67;10.88;;;;;;;0.77;83.92;99266.44;5053546;28;20051;-67
2024/01/15 11:08:52;;;;;;;14.50;10.00;;;;;;;0.77;83.96;99272.44;5053574;28;20114;-68
2024/01/15 11:12:12;;;;;;;16.23;11.27;;;;;;;1.06;85.46;99273.22;5053493;28;20052;-68
2024/01/15 11:15:20;;;;;;;16.90;11.38;;;;;;;0.48;88.15;99265.63;5053728;28;20154;-67
2024/01/15 11:18:24;;;;;;;19.02;11.57;;;;;;;0.47;90.33;99274.22;5053512;28;20513;-67
2024/01/15 11:21:29;;;;;;;17.25;10.60;;;;;;;0.42;90.40;99286.41;5053987;28;20454;-66
2024/01/15 11:24:39;;;;;;;16.80;11.05;;;;;;;0.31;91.76;99267.88;5053378;28;20510;-66
2024/01/15 11:27:44;;;;;;;17.67;11.55;;;;;;;0.35;92.60;99269.47;5047669;28;20056;-66
2024/01/15 11:30:47;;;;;;;16.48;10.95;;;;;;;0.23;92.59;99275.84;5041984;28;20120;-66
2024/01/15 11:33:51;;;;;;;18.20;11.32;;;;;;;0.13;93.85;99275.28;5041323;28;20036;-66
2024/01/15 11:36:54;;;;;;;18.20;11.27;;;;;;;0.18;94.13;99278.53;5039280;28;20048;-66
2024/01/15 11:40:05;;;;;;;20.85;13.25;;;;;;;0.33;94.82;99276.41;5046389;28;20052;-66
2024/01/15 11:43:09;;;;;;;19.23;12.13;;;;;;;0.46;94.04;99282.84;5038604;28;20044;-66
2024/01/15 11:46:12;;;;;;;19.52;11.98;;;;;;;0.36;93.77;99286.59;5044746;28;20114;-66
2024/01/15 11:49:24;;;;;;;;;;;;;;;0.40;93.28;99298.44;5044950;28;20059;-66
2024/01/15 11:52:38;;;;;;;16.88;11.23;;;;;;;0.77;91.78;99292.19;5038758;28;19920;-66
2024/01/15 11:55:45;;;;;;;19.17;11.98;;;;;;;0.75;90.95;99289.63;5046892;28;20484;-66
2024/01/15 11:58:47;;;;;;;16.38;10.35;;;;;;;0.71;90.63;99287.22;5042086;28;20113;-66
2024/01/15 12:01:51;;;;;;;17.13;10.73;;;;;;;0.67;91.07;99299.31;5034914;28;20056;-70
2024/01/15 12:04:55;;;;;;;16.05;10.50;;;;;;;0.98;90.88;99296.59;5032893;28;20557;-66
2024/01/15 12:07:59;;;;;;;15.35;10.82;;;;;;;0.80;90.26;99299.78;5033275;28;20052;-65
2024/01/15 12:11:11;;;;;;;17.73;11.38;;;;;;;0.62;91.80;99299.47;5033027;28;20092;-67
2024/01/15 12:14:14;;;;;;;14.20;10.27;;;;;;;0.44;91.85;99310.31;5032884;28;20076;-67
2024/01/15 12:17:18;;;;;;;15.88;10.80;;;;;;;0.52;92.73;99298.09;5032689;28;20068;-66
2024/01/15 12:20:21;;;;;;;16.50;9.98;;;;;;;0.55;92.75;99303.13;5032832;28;20394;-66
2024/01/15 12:23:24;;;;;;;;;;;;;;;0.64;92.98;99297.72;5032979;28;20060;-67
2024/01/15 12:26:28;;;;;;;16.58;10.80;;;;;;;0.74;93.12;99302.56;5032651;28;20107;-67
2024/01/15 12:29:31;;;;;;;16.63;10.80;;;;;;;0.45;95.02;99312.88;5032460;28;20537;-67
2024/01/15 12:32:34;;;;;;;19.42;11.15;;;;;;;0.44;96.52;99307.75;5032464;28;20080;-67
2024/01/15 12:35:37;;;;;;;18.13;13.25;;;;;;;0.39;97.92;99307.06;5032183;28;20128;-71
2024/01/15 12:38:41;;;;;;;17.98;12.18;;;;;;;0.36;97.76;99307.16;5036626;28;20501;-67
2024/01/15 12:41:44;;;;;;;18.02;11.25;;;;;;;0.37;98.37;99314.81;5051928;28;20063;-67
2024/01/15 12:44:47;;;;;;;16.00;11.65;;;;;;;0.29;100.00;99321.94;5052050;28;20047;-67
2024/01/15 12:47:51;;;;;;;18.48;10.73;;;;;;;0.45;100.00;99317.16;5051832;28;20114;-68
2024/01/15 12:50:55;;;;;;;15.25;10.05;;;;;;;0.40;99.98;99326.75;5052011;28;20051;-67
2024/01/15 12:53:59;;;;;;;16.58;10.43;;;;;;;0.46;99.95;99324.81;5052085;28;20174;-66
2024/01/15 12:57:03;;;;;;;14.45;9.15;;;;;;;0.34;99.65;99320.03;5051982;28;20105;-67
2024/01/15 13:00:12;;;;;;;13.50;9.30;;;;;;;0.51;99.84;99327.28;5051817;28;20508;-66
2024/01/15 13:03:16;;;;;;;12.77;8.23;;;;;;;0.56;98.45;99325.38;5051558;28;20056;-67
2024/01/15 13:06:21;;;;;;;13.00;8.15;;;;;;;0.53;96.94;99314.34;5051851;28;20099;-67
2024/01/15 13:09:25;;;;;;;;;;;;;;;0.66;97.19;99321.63;5052020;28;20130;-67
2024/01/15 13:12:29;;;;;;;11.05;6.45;;;;;;;0.87;95.71;99324.44;5051734;28;19963;-68
2024/01/15 13:15:32;;;;;;;12.07;7.50;;;;;;;0.89;94.30;99328.66;5051808;28;20035;-68
2024/01/15 13:18:36;;;;;;;;;;;;;;;0.95;94.71;99325.03;5052103;28;20048;-67
2024/01/15 13:21:43;;;;;;;9.38;5.68;;;;;;;1.08;93.56;99312.59;5051817;28;19966;-78
2024/01/15 13:24:58;;;;;;;10.32;5.90;;;;;;;1.15;93.05;99320.09;5051761;28;20051;-67
2024/01/15 13:28:02;;;;;;;10.60;6.20;;;;;;;1.28;92.15;99314.53;5051921;28;20402;-68
2024/01/15 13:31:08;;;;;;;14.60;6.80;;;;;;;1.08;92.74;99323.72;5051354;28;20047;-67
2024/01/15 13:34:12;;;;;;;10.88;5.60;;;;;;;1.13;92.10;99319.28;5051394;28;20106;-68
2024/01/15 13:37:18;;;;;;;12.65;5.90;;;;;;;1.22;92.07;99319.88;5051711;28;20056;-67
2024/01/15 13:40:22;;;;;;;15.63;5.97;;;;;;;1.04;90.82;99321.31;5051805;28;20059;-67
2024/01/15 13:43:27;;;;;;;12.18;7.00;;;;;;;1.12;90.90;99327.91;5051401;28;20071;-68
2024/01/15 13:46:31;;;;;;;9.32;5.85;;;;;;;1.26;91.35;99331.75;5051144;28;20098;-68
2024/01/15 13:49:36;;;;;;;10.63;5.07;;;;;;;1.46;89.35;99337.06;5051373;28;20110;-68
2024/01/15 13:52:40;;;;;;;7.30;3.67;;;;;;;1.72;88.00;99337.91;5055125;28;20127;-69
2024/01/15 13:55:43;;;;;;;9.10;3.75;;;;;;;1.67;84.75;99337.22;5055154;28;20080;-68
2024/01/15 13:58:48;;;;;;;12.07;3.28;;;;;;;1.91;83.91;99340.66;5055012;28;20039;-67
2024/01/15 14:01:51;;;;;;;7.43;2.75;;;;;;;1.62;82.57;99339.94;5055401;28;20415;-67
2024/01/15 14:04:55;;;;;;;9.73;3.75;;;;;;;1.56;83.65;99330.72;5048692;28;20359;-69
2024/01/15 14:07:58;;;;;;;;;;;;;;;1.71;82.94;99326.75;5036135;28;20137;-68
2024/01/15 14:11:02;;;;;;;8.13;3.38;;;;;;;1.95;82.66;99322.47;5054999;28;20282;-67
2024/01/15 14:14:07;;;;;;;9.68;4.28;;;;;;;1.88;79.45;99321.00;5050481;28;20080;-67
2024/01/15 14:17:11;;;;;;;8.88;3.00;;;;;;;1.87;80.26;99324.47;5052880;28;20576;-67
2024/01/15 14:20:14;;;;;;;;;;;;;;;1.93;80.73;99326.81;5038089;28;20044;-67